sensor_id;sensor_type;location;lat;lon;timestamp;P1;durP1;ratioP1;P2;durP2;ratioP2
8177;SDS011;4130;48.740;9.132;2023-07-20T00:02:20;1.20;;;1.15;;
8177;SDS011;4130;48.740;9.132;2023-07-20T00:04:47;1.48;;;1.20;;
8177;SDS011;4130;48.740;9.132;2023-07-20T00:07:13;1.77;;;1.65;;
8177;SDS011;4130;48.740;9.132;2023-07-20T00:09:40;1.90;;;1.52;;
8177;SDS011;4130;48.740;9.132;2023-07-20T00:12:07;1.50;;;1.40;;
8177;SDS011;4130;48.740;9.132;2023-07-20T00:14:34;1.50;;;1.30;;
8177;SDS011;4130;48.740;9.132;2023-07-20T00:17:02;2.10;;;1.67;;
8177;SDS011;4130;48.740;9.132;2023-07-20T00:19:29;1.55;;;1.45;;
8177;SDS011;4130;48.740;9.132;2023-07-20T00:21:57;1.88;;;1.55;;
8177;SDS011;4130;48.740;9.132;2023-07-20T00:24:24;2.58;;;1.45;;
8177;SDS011;4130;48.740;9.132;2023-07-20T00:26:51;2.13;;;1.40;;
8177;SDS011;4130;48.740;9.132;2023-07-20T00:29:17;1.52;;;1.30;;
8177;SDS011;4130;48.740;9.132;2023-07-20T00:31:44;3.28;;;1.40;;
8177;SDS011;4130;48.740;9.132;2023-07-20T00:34:12;1.48;;;1.30;;
8177;SDS011;4130;48.740;9.132;2023-07-20T00:36:39;1.95;;;1.58;;
8177;SDS011;4130;48.740;9.132;2023-07-20T00:39:06;1.50;;;1.40;;
8177;SDS011;4130;48.740;9.132;2023-07-20T00:41:33;2.67;;;1.40;;
8177;SDS011;4130;48.740;9.132;2023-07-20T00:44:00;1.65;;;1.55;;
8177;SDS011;4130;48.740;9.132;2023-07-20T00:46:26;1.50;;;1.40;;
8177;SDS011;4130;48.740;9.132;2023-07-20T00:48:53;1.77;;;1.55;;
8177;SDS011;4130;48.740;9.132;2023-07-20T00:51:22;1.50;;;1.40;;
8177;SDS011;4130;48.740;9.132;2023-07-20T00:53:51;2.17;;;1.42;;
8177;SDS011;4130;48.740;9.132;2023-07-20T00:56:18;2.42;;;1.50;;
8177;SDS011;4130;48.740;9.132;2023-07-20T00:58:45;1.50;;;1.40;;
8177;SDS011;4130;48.740;9.132;2023-07-20T01:01:12;1.60;;;1.50;;
8177;SDS011;4130;48.740;9.132;2023-07-20T01:03:39;1.40;;;1.30;;
8177;SDS011;4130;48.740;9.132;2023-07-20T01:06:09;1.70;;;1.60;;
8177;SDS011;4130;48.740;9.132;2023-07-20T01:08:45;1.60;;;1.38;;
8177;SDS011;4130;48.740;9.132;2023-07-20T01:11:23;1.70;;;1.60;;
8177;SDS011;4130;48.740;9.132;2023-07-20T01:13:56;1.42;;;1.30;;
8177;SDS011;4130;48.740;9.132;2023-07-20T01:16:24;2.83;;;1.60;;
8177;SDS011;4130;48.740;9.132;2023-07-20T01:18:50;2.17;;;1.50;;
8177;SDS011;4130;48.740;9.132;2023-07-20T01:21:18;1.73;;;1.50;;
8177;SDS011;4130;48.740;9.132;2023-07-20T01:23:56;1.42;;;1.40;;
8177;SDS011;4130;48.740;9.132;2023-07-20T01:26:54;1.77;;;1.30;;
8177;SDS011;4130;48.740;9.132;2023-07-20T01:29:36;1.30;;;1.20;;
8177;SDS011;4130;48.740;9.132;2023-07-20T01:32:23;1.45;;;1.30;;
8177;SDS011;4130;48.740;9.132;2023-07-20T01:34:51;1.70;;;1.30;;
8177;SDS011;4130;48.740;9.132;2023-07-20T01:37:20;2.10;;;1.42;;
8177;SDS011;4130;48.740;9.132;2023-07-20T01:39:51;2.63;;;1.63;;
8177;SDS011;4130;48.740;9.132;2023-07-20T01:42:20;1.30;;;1.20;;
8177;SDS011;4130;48.740;9.132;2023-07-20T01:44:50;1.98;;;1.73;;
8177;SDS011;4130;48.740;9.132;2023-07-20T01:47:17;1.60;;;1.50;;
8177;SDS011;4130;48.740;9.132;2023-07-20T01:49:45;2.28;;;1.60;;
8177;SDS011;4130;48.740;9.132;2023-07-20T01:52:12;2.10;;;1.73;;
8177;SDS011;4130;48.740;9.132;2023-07-20T01:54:38;1.92;;;1.60;;
8177;SDS011;4130;48.740;9.132;2023-07-20T01:57:05;1.50;;;1.40;;
8177;SDS011;4130;48.740;9.132;2023-07-20T01:59:32;1.67;;;1.40;;
8177;SDS011;4130;48.740;9.132;2023-07-20T02:01:59;1.40;;;1.20;;
8177;SDS011;4130;48.740;9.132;2023-07-20T02:04:25;1.80;;;1.35;;
8177;SDS011;4130;48.740;9.132;2023-07-20T02:06:54;1.90;;;1.63;;
8177;SDS011;4130;48.740;9.132;2023-07-20T02:09:20;1.98;;;1.77;;
8177;SDS011;4130;48.740;9.132;2023-07-20T02:11:47;1.83;;;1.50;;
8177;SDS011;4130;48.740;9.132;2023-07-20T02:14:15;1.98;;;1.70;;
8177;SDS011;4130;48.740;9.132;2023-07-20T02:16:41;1.98;;;1.60;;
8177;SDS011;4130;48.740;9.132;2023-07-20T02:19:08;1.40;;;1.30;;
8177;SDS011;4130;48.740;9.132;2023-07-20T02:21:35;1.70;;;1.60;;
8177;SDS011;4130;48.740;9.132;2023-07-20T02:24:04;3.92;;;1.63;;
8177;SDS011;4130;48.740;9.132;2023-07-20T02:26:31;2.65;;;1.70;;
8177;SDS011;4130;48.740;9.132;2023-07-20T02:28:58;1.48;;;1.38;;
8177;SDS011;4130;48.740;9.132;2023-07-20T02:31:25;1.90;;;1.55;;
8177;SDS011;4130;48.740;9.132;2023-07-20T02:33:52;2.17;;;1.60;;
8177;SDS011;4130;48.740;9.132;2023-07-20T02:36:18;1.90;;;1.45;;
8177;SDS011;4130;48.740;9.132;2023-07-20T02:38:45;2.25;;;1.70;;
8177;SDS011;4130;48.740;9.132;2023-07-20T02:41:13;1.60;;;1.50;;
8177;SDS011;4130;48.740;9.132;2023-07-20T02:43:40;1.70;;;1.60;;
8177;SDS011;4130;48.740;9.132;2023-07-20T02:46:07;3.10;;;1.50;;
8177;SDS011;4130;48.740;9.132;2023-07-20T02:48:34;1.60;;;1.50;;
8177;SDS011;4130;48.740;9.132;2023-07-20T02:51:00;2.75;;;1.63;;
8177;SDS011;4130;48.740;9.132;2023-07-20T02:53:27;1.65;;;1.55;;
8177;SDS011;4130;48.740;9.132;2023-07-20T02:55:54;1.60;;;1.50;;
8177;SDS011;4130;48.740;9.132;2023-07-20T02:58:22;2.15;;;1.70;;
8177;SDS011;4130;48.740;9.132;2023-07-20T03:00:49;1.70;;;1.60;;
8177;SDS011;4130;48.740;9.132;2023-07-20T03:03:15;1.85;;;1.45;;
8177;SDS011;4130;48.740;9.132;2023-07-20T03:05:42;1.73;;;1.63;;
8177;SDS011;4130;48.740;9.132;2023-07-20T03:08:09;2.33;;;1.80;;
8177;SDS011;4130;48.740;9.132;2023-07-20T03:10:38;1.60;;;1.48;;
8177;SDS011;4130;48.740;9.132;2023-07-20T03:13:05;2.10;;;1.73;;
8177;SDS011;4130;48.740;9.132;2023-07-20T03:15:33;2.22;;;1.50;;
8177;SDS011;4130;48.740;9.132;2023-07-20T03:18:00;1.83;;;1.70;;
8177;SDS011;4130;48.740;9.132;2023-07-20T03:20:28;2.08;;;1.88;;
8177;SDS011;4130;48.740;9.132;2023-07-20T03:22:54;2.10;;;1.93;;
8177;SDS011;4130;48.740;9.132;2023-07-20T03:25:21;1.97;;;1.73;;
8177;SDS011;4130;48.740;9.132;2023-07-20T03:27:48;2.03;;;1.58;;
8177;SDS011;4130;48.740;9.132;2023-07-20T03:30:15;2.03;;;1.60;;
8177;SDS011;4130;48.740;9.132;2023-07-20T03:32:43;1.90;;;1.70;;
8177;SDS011;4130;48.740;9.132;2023-07-20T03:35:10;2.30;;;1.70;;
8177;SDS011;4130;48.740;9.132;2023-07-20T03:37:37;1.80;;;1.40;;
8177;SDS011;4130;48.740;9.132;2023-07-20T03:40:05;2.33;;;1.87;;
8177;SDS011;4130;48.740;9.132;2023-07-20T03:42:32;2.60;;;1.70;;
8177;SDS011;4130;48.740;9.132;2023-07-20T03:44:59;2.20;;;1.80;;
8177;SDS011;4130;48.740;9.132;2023-07-20T03:47:26;1.70;;;1.60;;
8177;SDS011;4130;48.740;9.132;2023-07-20T03:49:54;2.23;;;1.70;;
8177;SDS011;4130;48.740;9.132;2023-07-20T03:52:21;2.20;;;1.67;;
8177;SDS011;4130;48.740;9.132;2023-07-20T03:54:48;1.40;;;1.33;;
8177;SDS011;4130;48.740;9.132;2023-07-20T03:57:16;4.40;;;1.77;;
8177;SDS011;4130;48.740;9.132;2023-07-20T03:59:44;1.83;;;1.60;;
8177;SDS011;4130;48.740;9.132;2023-07-20T04:02:12;1.75;;;1.55;;
8177;SDS011;4130;48.740;9.132;2023-07-20T04:04:38;1.92;;;1.60;;
8177;SDS011;4130;48.740;9.132;2023-07-20T04:07:07;1.77;;;1.67;;
8177;SDS011;4130;48.740;9.132;2023-07-20T04:09:34;2.77;;;1.67;;
8177;SDS011;4130;48.740;9.132;2023-07-20T04:12:00;1.70;;;1.60;;
8177;SDS011;4130;48.740;9.132;2023-07-20T04:14:27;5.10;;;1.90;;
8177;SDS011;4130;48.740;9.132;2023-07-20T04:16:54;2.47;;;1.90;;
8177;SDS011;4130;48.740;9.132;2023-07-20T04:19:20;2.25;;;2.05;;
8177;SDS011;4130;48.740;9.132;2023-07-20T04:21:47;2.05;;;1.60;;
8177;SDS011;4130;48.740;9.132;2023-07-20T04:24:15;1.85;;;1.70;;
8177;SDS011;4130;48.740;9.132;2023-07-20T04:26:42;1.60;;;1.50;;
8177;SDS011;4130;48.740;9.132;2023-07-20T04:29:08;2.17;;;1.70;;
8177;SDS011;4130;48.740;9.132;2023-07-20T04:31:35;2.80;;;1.63;;
8177;SDS011;4130;48.740;9.132;2023-07-20T04:34:02;1.80;;;1.60;;
8177;SDS011;4130;48.740;9.132;2023-07-20T04:36:29;2.72;;;1.50;;
8177;SDS011;4130;48.740;9.132;2023-07-20T04:38:55;3.50;;;1.40;;
8177;SDS011;4130;48.740;9.132;2023-07-20T04:41:23;2.72;;;1.70;;
8177;SDS011;4130;48.740;9.132;2023-07-20T04:43:51;1.75;;;1.55;;
8177;SDS011;4130;48.740;9.132;2023-07-20T04:46:18;1.58;;;1.48;;
8177;SDS011;4130;48.740;9.132;2023-07-20T04:48:46;1.52;;;1.42;;
8177;SDS011;4130;48.740;9.132;2023-07-20T04:51:13;2.58;;;1.80;;
8177;SDS011;4130;48.740;9.132;2023-07-20T04:53:39;5.03;;;1.85;;
8177;SDS011;4130;48.740;9.132;2023-07-20T04:56:06;1.60;;;1.48;;
8177;SDS011;4130;48.740;9.132;2023-07-20T04:58:35;3.28;;;1.90;;
8177;SDS011;4130;48.740;9.132;2023-07-20T05:01:02;1.63;;;1.52;;
8177;SDS011;4130;48.740;9.132;2023-07-20T05:03:29;1.98;;;1.67;;
8177;SDS011;4130;48.740;9.132;2023-07-20T05:05:56;1.92;;;1.50;;
8177;SDS011;4130;48.740;9.132;2023-07-20T05:08:23;1.50;;;1.40;;
8177;SDS011;4130;48.740;9.132;2023-07-20T05:10:50;5.55;;;1.48;;
8177;SDS011;4130;48.740;9.132;2023-07-20T05:13:16;2.00;;;1.80;;
8177;SDS011;4130;48.740;9.132;2023-07-20T05:15:44;2.13;;;1.13;;
8177;SDS011;4130;48.740;9.132;2023-07-20T05:18:11;8.45;;;2.33;;
8177;SDS011;4130;48.740;9.132;2023-07-20T05:20:38;2.75;;;1.70;;
8177;SDS011;4130;48.740;9.132;2023-07-20T05:23:05;1.73;;;1.40;;
8177;SDS011;4130;48.740;9.132;2023-07-20T05:25:31;2.45;;;1.42;;
8177;SDS011;4130;48.740;9.132;2023-07-20T05:28:00;1.30;;;1.20;;
8177;SDS011;4130;48.740;9.132;2023-07-20T05:30:27;1.52;;;1.42;;
8177;SDS011;4130;48.740;9.132;2023-07-20T05:32:55;2.38;;;1.30;;
8177;SDS011;4130;48.740;9.132;2023-07-20T05:35:22;1.67;;;1.45;;
8177;SDS011;4130;48.740;9.132;2023-07-20T05:37:49;2.20;;;1.50;;
8177;SDS011;4130;48.740;9.132;2023-07-20T05:40:16;2.67;;;1.95;;
8177;SDS011;4130;48.740;9.132;2023-07-20T05:42:44;1.58;;;1.48;;
8177;SDS011;4130;48.740;9.132;2023-07-20T05:45:13;2.63;;;1.50;;
8177;SDS011;4130;48.740;9.132;2023-07-20T05:47:41;1.73;;;1.27;;
8177;SDS011;4130;48.740;9.132;2023-07-20T05:50:09;1.83;;;1.50;;
8177;SDS011;4130;48.740;9.132;2023-07-20T05:52:36;2.78;;;1.45;;
8177;SDS011;4130;48.740;9.132;2023-07-20T05:55:04;4.28;;;1.80;;
8177;SDS011;4130;48.740;9.132;2023-07-20T05:57:31;1.55;;;1.45;;
8177;SDS011;4130;48.740;9.132;2023-07-20T05:59:58;3.17;;;1.70;;
8177;SDS011;4130;48.740;9.132;2023-07-20T06:02:25;1.70;;;1.60;;
8177;SDS011;4130;48.740;9.132;2023-07-20T06:04:52;1.85;;;1.50;;
8177;SDS011;4130;48.740;9.132;2023-07-20T06:07:22;2.15;;;1.40;;
8177;SDS011;4130;48.740;9.132;2023-07-20T06:09:49;1.35;;;1.25;;
8177;SDS011;4130;48.740;9.132;2023-07-20T06:12:16;3.20;;;1.38;;
8177;SDS011;4130;48.740;9.132;2023-07-20T06:14:43;1.55;;;1.45;;
8177;SDS011;4130;48.740;9.132;2023-07-20T06:17:09;1.60;;;1.20;;
8177;SDS011;4130;48.740;9.132;2023-07-20T06:19:36;1.63;;;1.52;;
8177;SDS011;4130;48.740;9.132;2023-07-20T06:22:03;1.73;;;1.33;;
8177;SDS011;4130;48.740;9.132;2023-07-20T06:24:32;2.53;;;1.50;;
8177;SDS011;4130;48.740;9.132;2023-07-20T06:26:59;1.88;;;1.23;;
8177;SDS011;4130;48.740;9.132;2023-07-20T06:29:25;1.48;;;1.38;;
8177;SDS011;4130;48.740;9.132;2023-07-20T06:31:52;2.30;;;1.42;;
8177;SDS011;4130;48.740;9.132;2023-07-20T06:34:19;4.07;;;1.60;;
8177;SDS011;4130;48.740;9.132;2023-07-20T06:36:45;2.33;;;1.45;;
8177;SDS011;4130;48.740;9.132;2023-07-20T06:39:12;3.00;;;1.20;;
8177;SDS011;4130;48.740;9.132;2023-07-20T06:41:40;2.17;;;1.42;;
8177;SDS011;4130;48.740;9.132;2023-07-20T06:44:07;9.82;;;2.22;;
8177;SDS011;4130;48.740;9.132;2023-07-20T06:46:34;1.63;;;1.40;;
8177;SDS011;4130;48.740;9.132;2023-07-20T06:49:01;1.35;;;1.25;;
8177;SDS011;4130;48.740;9.132;2023-07-20T06:51:27;2.30;;;1.42;;
8177;SDS011;4130;48.740;9.132;2023-07-20T06:53:54;2.72;;;1.42;;
8177;SDS011;4130;48.740;9.132;2023-07-20T06:56:21;1.55;;;1.27;;
8177;SDS011;4130;48.740;9.132;2023-07-20T06:58:49;1.50;;;1.40;;
8177;SDS011;4130;48.740;9.132;2023-07-20T07:01:16;2.17;;;1.83;;
8177;SDS011;4130;48.740;9.132;2023-07-20T07:03:43;1.35;;;1.25;;
8177;SDS011;4130;48.740;9.132;2023-07-20T07:06:10;1.40;;;1.30;;
8177;SDS011;4130;48.740;9.132;2023-07-20T07:08:37;1.60;;;1.40;;
8177;SDS011;4130;48.740;9.132;2023-07-20T07:11:03;2.65;;;1.67;;
8177;SDS011;4130;48.740;9.132;2023-07-20T07:13:31;1.48;;;1.38;;
8177;SDS011;4130;48.740;9.132;2023-07-20T07:15:59;2.50;;;1.33;;
8177;SDS011;4130;48.740;9.132;2023-07-20T07:18:25;1.25;;;1.17;;
8177;SDS011;4130;48.740;9.132;2023-07-20T07:20:52;1.67;;;1.55;;
8177;SDS011;4130;48.740;9.132;2023-07-20T07:23:19;4.53;;;1.42;;
8177;SDS011;4130;48.740;9.132;2023-07-20T07:25:46;2.58;;;1.30;;
8177;SDS011;4130;48.740;9.132;2023-07-20T07:28:13;3.40;;;1.40;;
8177;SDS011;4130;48.740;9.132;2023-07-20T07:30:40;1.20;;;1.10;;
8177;SDS011;4130;48.740;9.132;2023-07-20T07:33:08;1.25;;;1.15;;
8177;SDS011;4130;48.740;9.132;2023-07-20T07:35:36;3.63;;;1.38;;
8177;SDS011;4130;48.740;9.132;2023-07-20T07:38:02;1.60;;;1.27;;
8177;SDS011;4130;48.740;9.132;2023-07-20T07:40:30;1.65;;;1.48;;
8177;SDS011;4130;48.740;9.132;2023-07-20T07:42:57;2.17;;;1.38;;
8177;SDS011;4130;48.740;9.132;2023-07-20T07:45:23;1.42;;;1.10;;
8177;SDS011;4130;48.740;9.132;2023-07-20T07:47:50;1.70;;;1.60;;
8177;SDS011;4130;48.740;9.132;2023-07-20T07:50:19;1.40;;;1.30;;
8177;SDS011;4130;48.740;9.132;2023-07-20T07:52:45;1.38;;;1.35;;
8177;SDS011;4130;48.740;9.132;2023-07-20T07:55:12;1.30;;;1.20;;
8177;SDS011;4130;48.740;9.132;2023-07-20T07:57:41;2.20;;;1.55;;
8177;SDS011;4130;48.740;9.132;2023-07-20T08:00:09;1.50;;;1.40;;
8177;SDS011;4130;48.740;9.132;2023-07-20T08:02:39;1.85;;;1.58;;
8177;SDS011;4130;48.740;9.132;2023-07-20T08:05:06;1.98;;;1.63;;
8177;SDS011;4130;48.740;9.132;2023-07-20T08:07:35;3.47;;;1.50;;
8177;SDS011;4130;48.740;9.132;2023-07-20T08:10:01;1.65;;;1.40;;
8177;SDS011;4130;48.740;9.132;2023-07-20T08:12:29;1.67;;;1.50;;
8177;SDS011;4130;48.740;9.132;2023-07-20T08:14:55;1.52;;;1.40;;
8177;SDS011;4130;48.740;9.132;2023-07-20T08:17:22;1.50;;;1.40;;
8177;SDS011;4130;48.740;9.132;2023-07-20T08:19:49;1.70;;;1.60;;
8177;SDS011;4130;48.740;9.132;2023-07-20T08:22:16;1.50;;;1.40;;
8177;SDS011;4130;48.740;9.132;2023-07-20T08:24:44;1.92;;;1.38;;
8177;SDS011;4130;48.740;9.132;2023-07-20T08:27:11;2.88;;;1.30;;
8177;SDS011;4130;48.740;9.132;2023-07-20T08:29:38;2.05;;;1.50;;
8177;SDS011;4130;48.740;9.132;2023-07-20T08:32:05;1.73;;;1.60;;
8177;SDS011;4130;48.740;9.132;2023-07-20T08:34:32;1.60;;;1.50;;
8177;SDS011;4130;48.740;9.132;2023-07-20T08:36:59;1.40;;;1.30;;
8177;SDS011;4130;48.740;9.132;2023-07-20T08:39:26;2.67;;;1.20;;
8177;SDS011;4130;48.740;9.132;2023-07-20T08:41:54;1.50;;;1.40;;
8177;SDS011;4130;48.740;9.132;2023-07-20T08:44:21;1.50;;;1.15;;
8177;SDS011;4130;48.740;9.132;2023-07-20T08:46:48;1.40;;;1.30;;
8177;SDS011;4130;48.740;9.132;2023-07-20T08:49:15;5.60;;;1.23;;
8177;SDS011;4130;48.740;9.132;2023-07-20T08:51:43;2.38;;;1.40;;
8177;SDS011;4130;48.740;9.132;2023-07-20T08:54:12;1.50;;;1.35;;
8177;SDS011;4130;48.740;9.132;2023-07-20T08:56:40;1.55;;;1.30;;
8177;SDS011;4130;48.740;9.132;2023-07-20T08:59:10;1.90;;;1.40;;
8177;SDS011;4130;48.740;9.132;2023-07-20T09:01:38;1.30;;;1.20;;
8177;SDS011;4130;48.740;9.132;2023-07-20T09:04:06;1.73;;;1.30;;
8177;SDS011;4130;48.740;9.132;2023-07-20T09:06:33;2.10;;;1.30;;
8177;SDS011;4130;48.740;9.132;2023-07-20T09:09:01;1.23;;;1.20;;
8177;SDS011;4130;48.740;9.132;2023-07-20T09:11:28;3.13;;;1.52;;
8177;SDS011;4130;48.740;9.132;2023-07-20T09:14:05;1.13;;;1.02;;
8177;SDS011;4130;48.740;9.132;2023-07-20T09:16:34;2.55;;;1.42;;
8177;SDS011;4130;48.740;9.132;2023-07-20T09:19:14;2.05;;;1.27;;
8177;SDS011;4130;48.740;9.132;2023-07-20T09:21:43;1.20;;;0.95;;
8177;SDS011;4130;48.740;9.132;2023-07-20T09:24:11;1.40;;;1.30;;
8177;SDS011;4130;48.740;9.132;2023-07-20T09:26:40;1.50;;;1.20;;
8177;SDS011;4130;48.740;9.132;2023-07-20T09:29:13;1.35;;;1.00;;
8177;SDS011;4130;48.740;9.132;2023-07-20T09:31:41;1.38;;;1.15;;
8177;SDS011;4130;48.740;9.132;2023-07-20T09:34:08;1.45;;;1.27;;
8177;SDS011;4130;48.740;9.132;2023-07-20T09:36:35;1.38;;;1.20;;
8177;SDS011;4130;48.740;9.132;2023-07-20T09:39:02;2.50;;;1.45;;
8177;SDS011;4130;48.740;9.132;2023-07-20T09:41:30;1.45;;;1.35;;
8177;SDS011;4130;48.740;9.132;2023-07-20T09:44:06;1.45;;;1.15;;
8177;SDS011;4130;48.740;9.132;2023-07-20T09:46:42;1.60;;;1.50;;
8177;SDS011;4130;48.740;9.132;2023-07-20T09:49:10;1.00;;;1.00;;
8177;SDS011;4130;48.740;9.132;2023-07-20T09:51:37;1.50;;;1.30;;
8177;SDS011;4130;48.740;9.132;2023-07-20T09:54:04;1.83;;;1.20;;
8177;SDS011;4130;48.740;9.132;2023-07-20T09:56:32;1.30;;;1.20;;
8177;SDS011;4130;48.740;9.132;2023-07-20T09:58:59;1.23;;;1.13;;
8177;SDS011;4130;48.740;9.132;2023-07-20T10:01:26;1.30;;;1.17;;
8177;SDS011;4130;48.740;9.132;2023-07-20T10:03:57;1.08;;;1.00;;
8177;SDS011;4130;48.740;9.132;2023-07-20T10:06:26;3.83;;;1.30;;
8177;SDS011;4130;48.740;9.132;2023-07-20T10:08:56;1.00;;;1.00;;
8177;SDS011;4130;48.740;9.132;2023-07-20T10:11:27;1.27;;;1.17;;
8177;SDS011;4130;48.740;9.132;2023-07-20T10:13:58;1.25;;;1.17;;
8177;SDS011;4130;48.740;9.132;2023-07-20T10:16:26;1.60;;;1.10;;
8177;SDS011;4130;48.740;9.132;2023-07-20T10:18:59;1.02;;;1.02;;
8177;SDS011;4130;48.740;9.132;2023-07-20T10:21:29;0.98;;;0.98;;
8177;SDS011;4130;48.740;9.132;2023-07-20T10:23:58;1.33;;;1.23;;
8177;SDS011;4130;48.740;9.132;2023-07-20T10:26:26;3.10;;;1.17;;
8177;SDS011;4130;48.740;9.132;2023-07-20T10:28:53;0.90;;;0.88;;
8177;SDS011;4130;48.740;9.132;2023-07-20T10:31:22;1.95;;;1.13;;
8177;SDS011;4130;48.740;9.132;2023-07-20T10:33:49;1.20;;;0.90;;
8177;SDS011;4130;48.740;9.132;2023-07-20T10:36:21;1.75;;;1.20;;
8177;SDS011;4130;48.740;9.132;2023-07-20T10:38:52;0.93;;;0.93;;
8177;SDS011;4130;48.740;9.132;2023-07-20T10:41:21;0.90;;;0.90;;
8177;SDS011;4130;48.740;9.132;2023-07-20T10:43:49;0.90;;;0.90;;
8177;SDS011;4130;48.740;9.132;2023-07-20T10:46:33;1.38;;;1.08;;
8177;SDS011;4130;48.740;9.132;2023-07-20T10:49:01;0.77;;;0.77;;
8177;SDS011;4130;48.740;9.132;2023-07-20T10:51:30;2.58;;;1.08;;
8177;SDS011;4130;48.740;9.132;2023-07-20T10:54:07;1.30;;;1.20;;
8177;SDS011;4130;48.740;9.132;2023-07-20T10:56:34;1.27;;;1.17;;
8177;SDS011;4130;48.740;9.132;2023-07-20T10:59:02;2.33;;;1.08;;
8177;SDS011;4130;48.740;9.132;2023-07-20T11:01:44;1.77;;;1.40;;
8177;SDS011;4130;48.740;9.132;2023-07-20T11:04:12;1.15;;;1.05;;
8177;SDS011;4130;48.740;9.132;2023-07-20T11:06:41;1.10;;;1.10;;
8177;SDS011;4130;48.740;9.132;2023-07-20T11:09:09;2.25;;;1.20;;
8177;SDS011;4130;48.740;9.132;2023-07-20T11:11:40;1.08;;;1.00;;
8177;SDS011;4130;48.740;9.132;2023-07-20T11:14:08;1.23;;;0.98;;
8177;SDS011;4130;48.740;9.132;2023-07-20T11:16:36;2.22;;;0.90;;
8177;SDS011;4130;48.740;9.132;2023-07-20T11:19:05;1.05;;;1.00;;
8177;SDS011;4130;48.740;9.132;2023-07-20T11:21:40;1.33;;;0.95;;
8177;SDS011;4130;48.740;9.132;2023-07-20T11:24:09;1.45;;;0.95;;
8177;SDS011;4130;48.740;9.132;2023-07-20T11:26:41;1.08;;;0.95;;
8177;SDS011;4130;48.740;9.132;2023-07-20T11:29:08;0.80;;;0.80;;
8177;SDS011;4130;48.740;9.132;2023-07-20T11:31:35;2.13;;;0.90;;
8177;SDS011;4130;48.740;9.132;2023-07-20T11:34:03;1.00;;;1.00;;
8177;SDS011;4130;48.740;9.132;2023-07-20T11:36:29;2.53;;;1.33;;
8177;SDS011;4130;48.740;9.132;2023-07-20T11:38:58;2.03;;;1.00;;
8177;SDS011;4130;48.740;9.132;2023-07-20T11:41:25;0.80;;;0.80;;
8177;SDS011;4130;48.740;9.132;2023-07-20T11:43:52;0.90;;;0.90;;
8177;SDS011;4130;48.740;9.132;2023-07-20T11:46:19;1.08;;;1.02;;
8177;SDS011;4130;48.740;9.132;2023-07-20T11:48:46;0.82;;;0.82;;
8177;SDS011;4130;48.740;9.132;2023-07-20T11:51:13;1.20;;;1.10;;
8177;SDS011;4130;48.740;9.132;2023-07-20T11:53:41;0.60;;;0.60;;
8177;SDS011;4130;48.740;9.132;2023-07-20T11:56:10;0.93;;;0.93;;
8177;SDS011;4130;48.740;9.132;2023-07-20T11:58:41;2.45;;;1.05;;
8177;SDS011;4130;48.740;9.132;2023-07-20T12:01:08;1.08;;;0.90;;
8177;SDS011;4130;48.740;9.132;2023-07-20T12:03:35;1.00;;;1.00;;
8177;SDS011;4130;48.740;9.132;2023-07-20T12:06:06;1.25;;;1.15;;
8177;SDS011;4130;48.740;9.132;2023-07-20T12:08:33;0.80;;;0.80;;
8177;SDS011;4130;48.740;9.132;2023-07-20T12:11:00;1.40;;;1.30;;
8177;SDS011;4130;48.740;9.132;2023-07-20T12:13:36;2.00;;;1.08;;
8177;SDS011;4130;48.740;9.132;2023-07-20T12:16:08;0.73;;;0.73;;
8177;SDS011;4130;48.740;9.132;2023-07-20T12:18:36;1.58;;;1.00;;
8177;SDS011;4130;48.740;9.132;2023-07-20T12:21:03;2.25;;;1.00;;
8177;SDS011;4130;48.740;9.132;2023-07-20T12:23:34;0.90;;;0.90;;
8177;SDS011;4130;48.740;9.132;2023-07-20T12:26:02;0.73;;;0.73;;
8177;SDS011;4130;48.740;9.132;2023-07-20T12:28:30;0.82;;;0.82;;
8177;SDS011;4130;48.740;9.132;2023-07-20T12:30:59;0.88;;;0.88;;
8177;SDS011;4130;48.740;9.132;2023-07-20T12:33:26;0.80;;;0.80;;
8177;SDS011;4130;48.740;9.132;2023-07-20T12:35:52;1.10;;;1.10;;
8177;SDS011;4130;48.740;9.132;2023-07-20T12:38:21;1.15;;;1.10;;
8177;SDS011;4130;48.740;9.132;2023-07-20T12:40:48;0.73;;;0.73;;
8177;SDS011;4130;48.740;9.132;2023-07-20T12:43:15;1.20;;;1.10;;
8177;SDS011;4130;48.740;9.132;2023-07-20T12:45:41;1.20;;;1.10;;
8177;SDS011;4130;48.740;9.132;2023-07-20T12:48:10;1.02;;;1.00;;
8177;SDS011;4130;48.740;9.132;2023-07-20T12:50:36;1.00;;;0.90;;
8177;SDS011;4130;48.740;9.132;2023-07-20T12:53:03;0.98;;;0.98;;
8177;SDS011;4130;48.740;9.132;2023-07-20T12:55:30;1.50;;;1.20;;
8177;SDS011;4130;48.740;9.132;2023-07-20T12:57:57;1.70;;;1.10;;
8177;SDS011;4130;48.740;9.132;2023-07-20T13:00:24;0.93;;;0.93;;
8177;SDS011;4130;48.740;9.132;2023-07-20T13:02:51;0.95;;;0.95;;
8177;SDS011;4130;48.740;9.132;2023-07-20T13:05:19;2.30;;;1.17;;
8177;SDS011;4130;48.740;9.132;2023-07-20T13:07:46;0.82;;;0.82;;
8177;SDS011;4130;48.740;9.132;2023-07-20T13:10:13;0.80;;;0.80;;
8177;SDS011;4130;48.740;9.132;2023-07-20T13:12:40;1.10;;;1.00;;
8177;SDS011;4130;48.740;9.132;2023-07-20T13:15:07;3.88;;;0.90;;
8177;SDS011;4130;48.740;9.132;2023-07-20T13:17:37;0.95;;;0.95;;
8177;SDS011;4130;48.740;9.132;2023-07-20T13:20:05;1.70;;;1.15;;
8177;SDS011;4130;48.740;9.132;2023-07-20T13:22:36;1.30;;;1.10;;
8177;SDS011;4130;48.740;9.132;2023-07-20T13:25:03;0.90;;;0.90;;
8177;SDS011;4130;48.740;9.132;2023-07-20T13:27:31;1.20;;;1.10;;
8177;SDS011;4130;48.740;9.132;2023-07-20T13:29:58;1.10;;;0.90;;
8177;SDS011;4130;48.740;9.132;2023-07-20T13:32:25;1.30;;;1.15;;
8177;SDS011;4130;48.740;9.132;2023-07-20T13:34:53;1.63;;;1.20;;
8177;SDS011;4130;48.740;9.132;2023-07-20T13:37:20;1.25;;;1.10;;
8177;SDS011;4130;48.740;9.132;2023-07-20T13:39:48;1.10;;;1.00;;
8177;SDS011;4130;48.740;9.132;2023-07-20T13:42:15;0.80;;;0.80;;
8177;SDS011;4130;48.740;9.132;2023-07-20T13:44:42;1.65;;;1.25;;
8177;SDS011;4130;48.740;9.132;2023-07-20T13:47:09;0.90;;;0.90;;
8177;SDS011;4130;48.740;9.132;2023-07-20T13:49:35;1.25;;;1.15;;
8177;SDS011;4130;48.740;9.132;2023-07-20T13:52:04;1.17;;;1.08;;
8177;SDS011;4130;48.740;9.132;2023-07-20T13:54:32;1.30;;;1.30;;
8177;SDS011;4130;48.740;9.132;2023-07-20T13:57:00;1.23;;;1.13;;
8177;SDS011;4130;48.740;9.132;2023-07-20T13:59:27;1.90;;;1.00;;
8177;SDS011;4130;48.740;9.132;2023-07-20T14:01:54;0.80;;;0.80;;
8177;SDS011;4130;48.740;9.132;2023-07-20T14:04:21;0.90;;;0.90;;
8177;SDS011;4130;48.740;9.132;2023-07-20T14:06:47;1.60;;;1.20;;
8177;SDS011;4130;48.740;9.132;2023-07-20T14:09:14;0.90;;;0.90;;
8177;SDS011;4130;48.740;9.132;2023-07-20T14:11:41;1.33;;;1.20;;
8177;SDS011;4130;48.740;9.132;2023-07-20T14:14:10;1.17;;;1.08;;
8177;SDS011;4130;48.740;9.132;2023-07-20T14:16:36;0.80;;;0.80;;
8177;SDS011;4130;48.740;9.132;2023-07-20T14:19:03;1.85;;;1.55;;
8177;SDS011;4130;48.740;9.132;2023-07-20T14:21:30;1.83;;;1.10;;
8177;SDS011;4130;48.740;9.132;2023-07-20T14:23:58;3.25;;;1.15;;
8177;SDS011;4130;48.740;9.132;2023-07-20T14:26:24;1.00;;;1.00;;
8177;SDS011;4130;48.740;9.132;2023-07-20T14:28:51;1.15;;;0.88;;
8177;SDS011;4130;48.740;9.132;2023-07-20T14:31:19;1.02;;;0.90;;
8177;SDS011;4130;48.740;9.132;2023-07-20T14:33:46;1.50;;;1.00;;
8177;SDS011;4130;48.740;9.132;2023-07-20T14:36:13;1.25;;;1.20;;
8177;SDS011;4130;48.740;9.132;2023-07-20T14:38:39;2.88;;;1.35;;
8177;SDS011;4130;48.740;9.132;2023-07-20T14:41:07;0.90;;;0.90;;
8177;SDS011;4130;48.740;9.132;2023-07-20T14:43:34;0.88;;;0.82;;
8177;SDS011;4130;48.740;9.132;2023-07-20T14:46:01;0.85;;;0.85;;
8177;SDS011;4130;48.740;9.132;2023-07-20T14:48:29;3.17;;;1.10;;
8177;SDS011;4130;48.740;9.132;2023-07-20T14:50:56;0.90;;;0.90;;
8177;SDS011;4130;48.740;9.132;2023-07-20T14:53:23;1.38;;;0.75;;
8177;SDS011;4130;48.740;9.132;2023-07-20T14:55:49;0.95;;;0.95;;
8177;SDS011;4130;48.740;9.132;2023-07-20T14:58:16;2.15;;;1.25;;
8177;SDS011;4130;48.740;9.132;2023-07-20T15:00:43;1.23;;;0.85;;
8177;SDS011;4130;48.740;9.132;2023-07-20T15:03:10;1.00;;;1.00;;
8177;SDS011;4130;48.740;9.132;2023-07-20T15:05:38;1.30;;;1.20;;
8177;SDS011;4130;48.740;9.132;2023-07-20T15:08:05;1.27;;;1.15;;
8177;SDS011;4130;48.740;9.132;2023-07-20T15:10:33;1.08;;;1.00;;
8177;SDS011;4130;48.740;9.132;2023-07-20T15:13:00;1.20;;;1.10;;
8177;SDS011;4130;48.740;9.132;2023-07-20T15:15:27;1.00;;;1.00;;
8177;SDS011;4130;48.740;9.132;2023-07-20T15:20:42;2.20;;;1.00;;
8177;SDS011;4130;48.740;9.132;2023-07-20T15:23:09;1.13;;;1.00;;